Time;durP1;ratioP1;P1;durP2;ratioP2;P2;SDS_P1;SDS_P2;PMS_P1;PMS_P2;Temp;Humidity;BMP_temperature;BMP_pressure;BME280_temperature;BME280_humidity;BME280_pressure;Samples;Min_cycle;Max_cycle;Signal;HPM_P1;HPM_P2
2021/10/18 00:00:31;;;;;;;;;;;;;;;9.79;89.85;102157.69;4894210;29;20447;-55
2021/10/18 00:02:58;;;;;;;;;;;;;;;9.77;89.63;102146.38;4878393;29;19987;-55
2021/10/18 00:05:25;;;;;;;;;;;;;;;9.81;89.27;102137.44;4891623;29;19938;-58
2021/10/18 00:07:51;;;;;;;;;;;;;;;9.82;89.40;102140.94;4879491;29;19960;-54
2021/10/18 00:10:18;;;;;;;;;;;;;;;9.77;89.61;102142.91;4879479;29;19928;-56
2021/10/18 00:12:45;;;;;;;;;;;;;;;9.71;90.13;102146.66;4879601;29;19988;-55
2021/10/18 00:15:13;;;;;;;;;;;;;;;9.72;90.12;102144.88;4879675;29;19992;-55
2021/10/18 00:17:39;;;;;;;;;;;;;;;9.64;89.85;102138.16;4879540;29;19955;-56
2021/10/18 00:20:07;;;;;;;;;;;;;;;9.61;89.83;102140.91;4879368;29;19928;-56
2021/10/18 00:22:34;;;;;;;;;;;;;;;9.59;90.29;102147.16;4879305;29;20395;-54
2021/10/18 00:25:00;;;;;;;;;;;;;;;9.58;90.46;102146.28;4879242;29;20060;-53
2021/10/18 00:27:27;;;;;;;;;;;;;;;9.57;90.77;102141.97;4879282;29;20299;-56
2021/10/18 00:29:54;;;;;;;;;;;;;;;9.59;90.37;102147.16;4879227;29;19932;-55
2021/10/18 00:32:20;;;;;;;;;;;;;;;9.52;90.37;102146.53;4879217;29;19935;-57
2021/10/18 00:34:47;;;;;;;;;;;;;;;9.52;90.23;102157.03;4879464;29;19927;-53
2021/10/18 00:37:14;;;;;;;;;;;;;;;9.47;90.48;102157.22;4879296;29;19976;-56
2021/10/18 00:39:41;;;;;;;;;;;;;;;9.46;90.22;102162.53;4879588;29;19928;-55
2021/10/18 00:42:08;;;;;;;;;;;;;;;9.52;89.55;102156.19;4879040;29;19928;-55
2021/10/18 00:44:34;;;;;;;;;;;;;;;9.48;90.32;102158.91;4879209;29;20356;-56
2021/10/18 00:47:01;;;;;;;;;;;;;;;9.60;90.45;102165.47;4876305;29;19939;-54
2021/10/18 00:49:29;;;;;;;;;;;;;;;9.60;90.42;102168.09;4876461;29;20692;-56
2021/10/18 00:51:56;;;;;;;;;;;;;;;9.68;90.09;102166.91;4862498;29;19954;-54
2021/10/18 00:54:23;;;;;;;;;;;;;;;9.68;89.81;102169.56;4879163;29;20364;-55
2021/10/18 00:56:49;;;;;;;;;;;;;;;9.57;90.75;102165.59;4893484;29;19928;-56
2021/10/18 00:59:16;;;;;;;;;;;;;;;9.51;91.05;102163.19;4862301;29;19984;-55
2021/10/18 01:01:43;;;;;;;;;;;;;;;9.45;91.28;102166.09;4861871;29;19932;-55
2021/10/18 01:04:10;;;;;;;;;;;;;;;9.40;91.93;102168.03;4878882;29;19970;-56
2021/10/18 01:06:36;;;;;;;;;;;;;;;9.51;91.59;102170.22;4879027;29;19928;-56
2021/10/18 01:09:03;;;;;;;;;;;;;;;9.51;92.38;102171.06;4877973;29;19927;-56
2021/10/18 01:11:30;;;;;;;;;;;;;;;9.56;91.36;102161.25;4879007;29;19932;-54
2021/10/18 01:13:56;;;;;;;;;;;;;;;9.50;91.45;102166.72;4878997;29;19932;-55
2021/10/18 01:16:23;;;;;;;;;;;;;;;9.42;92.14;102161.81;4859601;29;19927;-54
2021/10/18 01:18:50;;;;;;;;;;;;;;;9.43;91.87;102162.66;4876313;29;19928;-56
2021/10/18 01:21:16;;;;;;;;;;;;;;;9.42;91.77;102163.56;4879022;29;19928;-56
2021/10/18 01:23:43;;;;;;;;;;;;;;;9.40;91.79;102157.53;4877582;29;19971;-56
2021/10/18 01:26:09;;;;;;;;;;;;;;;9.38;91.40;102152.34;4876373;29;19984;-58
2021/10/18 01:28:36;;;;;;;;;;;;;;;9.33;91.25;102146.41;4861232;29;19935;-57
2021/10/18 01:31:03;;;;;;;;;;;;;;;9.34;90.95;102149.88;4861550;29;19983;-57
2021/10/18 01:33:29;;;;;;;;;;;;;;;9.34;91.14;102152.50;4878136;29;20017;-55
2021/10/18 01:35:56;;;;;;;;;;;;;;;9.29;91.14;102153.53;4878199;29;19928;-57
2021/10/18 01:38:23;;;;;;;;;;;;;;;9.25;91.57;102154.56;4878144;29;19928;-57
2021/10/18 01:40:49;;;;;;;;;;;;;;;9.22;91.05;102149.44;4878268;29;19928;-56
2021/10/18 01:43:16;;;;;;;;;;;;;;;9.20;91.05;102147.78;4875702;29;20022;-56
2021/10/18 01:45:43;;;;;;;;;;;;;;;9.20;91.38;102147.78;4874701;29;20399;-56
2021/10/18 01:48:10;;;;;;;;;;;;;;;9.07;91.93;102145.63;4878591;29;19934;-56
2021/10/18 01:50:36;;;;;;;;;;;;;;;9.13;91.33;102149.78;4878502;29;19984;-56
2021/10/18 01:53:03;;;;;;;;;;;;;;;9.15;91.08;102142.72;4878187;29;19984;-56
2021/10/18 01:55:29;;;;;;;;;;;;;;;9.03;92.23;102144.03;4862221;29;19928;-57
2021/10/18 01:57:56;;;;;;;;;;;;;;;9.01;92.27;102145.84;4878490;29;20380;-55
2021/10/18 02:00:23;;;;;;;;;;;;;;;9.02;92.56;102141.47;4864971;29;20414;-56
2021/10/18 02:02:50;;;;;;;;;;;;;;;9.07;91.82;102144.78;4891588;29;19967;-56
2021/10/18 02:05:17;;;;;;;;;;;;;;;9.11;92.01;102144.59;4878627;29;19978;-55
2021/10/18 02:07:44;;;;;;;;;;;;;;;9.12;92.03;102148.06;4877336;29;19935;-56
2021/10/18 02:10:11;;;;;;;;;;;;;;;9.07;91.88;102147.41;4875863;29;19928;-56
2021/10/18 02:12:37;;;;;;;;;;;;;;;8.98;92.65;102134.66;4892930;29;19932;-56
2021/10/18 02:15:05;;;;;;;;;;;;;;;8.80;94.07;102137.88;4881503;29;19927;-56
2021/10/18 02:17:31;;;;;;;;;;;;;;;8.83;93.60;102136.06;4878369;29;19979;-56
2021/10/18 02:19:58;;;;;;;;;;;;;;;8.92;93.30;102139.19;4879864;29;19935;-56
2021/10/18 02:22:24;;;;;;;;;;;;;;;8.91;93.08;102134.84;4882017;29;19928;-53
2021/10/18 02:24:51;;;;;;;;;;;;;;;8.89;93.03;102134.06;4880342;29;20341;-55
2021/10/18 02:27:18;;;;;;;;;;;;;;;9.02;93.15;102136.25;4881690;29;20324;-55
2021/10/18 02:29:44;;;;;;;;;;;;;;;9.05;93.29;102138.75;4881385;29;19931;-55
2021/10/18 02:32:11;;;;;;;;;;;;;;;9.03;92.92;102135.31;4880219;29;20367;-56
2021/10/18 02:34:37;;;;;;;;;;;;;;;8.95;93.37;102127.75;4881388;29;19960;-56
2021/10/18 02:37:04;;;;;;;;;;;;;;;8.94;93.46;102126.03;4881296;29;20376;-55
2021/10/18 02:39:31;;;;;;;;;;;;;;;8.91;93.70;102121.75;4864844;29;19959;-55
2021/10/18 02:41:57;;;;;;;;;;;;;;;8.89;93.41;102123.59;4880999;29;19975;-56
2021/10/18 02:44:24;;;;;;;;;;;;;;;8.93;93.44;102124.31;4879432;29;19939;-56
2021/10/18 02:46:50;;;;;;;;;;;;;;;8.98;93.57;102118.91;4878035;29;19928;-57
2021/10/18 02:49:17;;;;;;;;;;;;;;;8.99;93.37;102125.88;4879811;29;19995;-55
2021/10/18 02:51:44;;;;;;;;;;;;;;;8.98;93.24;102124.16;4880998;29;19928;-57
2021/10/18 02:54:10;;;;;;;;;;;;;;;9.00;92.87;102124.94;4880957;29;19995;-56
2021/10/18 02:56:37;;;;;;;;;;;;;;;9.01;93.33;102126.66;4864413;29;19927;-57
2021/10/18 02:59:03;;;;;;;;;;;;;;;9.02;93.21;102131.00;4877838;29;19960;-57
2021/10/18 03:01:30;;;;;;;;;;;;;;;9.11;92.45;102133.25;4877881;29;19932;-56
2021/10/18 03:03:57;;;;;;;;;;;;;;;9.16;92.36;102126.03;4880182;29;19975;-56
2021/10/18 03:06:24;;;;;;;;;;;;;;;9.05;91.98;102129.13;4879213;29;19967;-57
2021/10/18 03:08:50;;;;;;;;;;;;;;;9.00;92.30;102132.78;4879652;29;19928;-57
2021/10/18 03:11:17;;;;;;;;;;;;;;;9.00;92.77;102131.06;4880550;29;20383;-56
2021/10/18 03:13:44;;;;;;;;;;;;;;;8.98;92.17;102129.41;4894100;29;19996;-56
2021/10/18 03:16:10;;;;;;;;;;;;;;;8.96;92.08;102124.22;4881949;29;19981;-56
2021/10/18 03:18:37;;;;;;;;;;;;;;;8.94;92.78;102124.28;4886515;29;19931;-56
2021/10/18 03:21:04;;;;;;;;;;;;;;;8.90;92.74;102121.81;4879846;29;20006;-56
2021/10/18 03:23:30;;;;;;;;;;;;;;;8.82;93.21;102119.50;4896024;29;20447;-56
2021/10/18 03:25:57;;;;;;;;;;;;;;;8.76;93.15;102112.69;4879736;29;20275;-48
2021/10/18 03:28:24;;;;;;;;;;;;;;;8.77;92.95;102116.19;4899117;29;20387;-48
2021/10/18 03:30:51;;;;;;;;;;;;;;;8.79;92.78;102114.34;4882550;29;19928;-47
2021/10/18 03:33:17;;;;;;;;;;;;;;;8.74;92.70;102111.91;4882396;29;19928;-45
2021/10/18 03:35:45;;;;;;;;;;;;;;;8.77;92.91;102109.16;4897869;29;19954;-45
2021/10/18 03:38:11;;;;;;;;;;;;;;;8.75;92.69;102112.75;4898759;29;19928;-46
2021/10/18 03:40:38;;;;;;;;;;;;;;;8.65;93.23;102108.75;4897739;29;20017;-50
2021/10/18 03:43:05;;;;;;;;;;;;;;;8.70;93.10;102114.66;4898916;29;19928;-48
2021/10/18 03:45:31;;;;;;;;;;;;;;;8.65;93.17;102117.47;4897720;29;19939;-51
2021/10/18 03:47:59;;;;;;;;;;;;;;;8.70;92.63;102119.91;4896461;29;20303;-47
2021/10/18 03:50:26;;;;;;;;;;;;;;;8.67;93.12;102115.66;4896555;29;20564;-49
2021/10/18 03:52:52;;;;;;;;;;;;;;;8.56;93.82;102121.31;4898770;29;19970;-50
2021/10/18 03:55:19;;;;;;;;;;;;;;;8.56;93.47;102121.31;4898624;29;19931;-47
2021/10/18 03:57:45;;;;;;;;;;;;;;;8.66;93.06;102132.31;4898613;29;19935;-56
2021/10/18 04:00:12;;;;;;;;;;;;;;;8.63;92.96;102133.28;4898610;29;20375;-56
2021/10/18 04:02:39;;;;;;;;;;;;;;;8.57;93.29;102138.72;4898451;29;19927;-56
2021/10/18 04:05:06;;;;;;;;;;;;;;;8.58;93.08;102143.06;4881945;29;20343;-56
2021/10/18 04:07:33;;;;;;;;;;;;;;;8.72;92.58;102146.97;4897374;29;20047;-56
2021/10/18 04:09:59;;;;;;;;;;;;;;;8.65;92.52;102148.94;4898227;29;19927;-54
2021/10/18 04:12:26;;;;;;;;;;;;;;;8.55;92.58;102143.19;4898093;29;19955;-56
2021/10/18 04:14:53;;;;;;;;;;;;;;;8.46;92.40;102139.09;4898301;29;20501;-56
2021/10/18 04:17:19;;;;;;;;;;;;;;;8.38;92.37;102150.75;4898082;29;19927;-56
2021/10/18 04:19:46;;;;;;;;;;;;;;;8.29;92.39;102147.53;4898217;29;19975;-55
2021/10/18 04:22:12;;;;;;;;;;;;;;;8.26;92.15;102147.66;4895714;29;19928;-56
2021/10/18 04:24:39;;;;;;;;;;;;;;;8.20;92.40;102150.47;4895730;29;19979;-57
2021/10/18 04:27:06;;;;;;;;;;;;;;;8.22;92.08;102151.28;4897833;29;19927;-57
2021/10/18 04:29:32;;;;;;;;;;;;;;;8.15;92.65;102148.94;4895404;29;19951;-57
2021/10/18 04:31:59;;;;;;;;;;;;;;;8.12;92.13;102149.88;4894790;29;19963;-56
2021/10/18 04:34:26;;;;;;;;;;;;;;;8.07;92.28;102147.44;4896983;29;19950;-56
2021/10/18 04:36:53;;;;;;;;;;;;;;;8.04;91.68;102146.66;4880832;29;19931;-54
2021/10/18 04:39:20;;;;;;;;;;;;;;;8.00;91.66;102145.91;4896611;29;19928;-56
2021/10/18 04:41:47;;;;;;;;;;;;;;;7.97;92.11;102159.13;4881463;29;19931;-57
2021/10/18 04:44:13;;;;;;;;;;;;;;;7.95;91.73;102150.47;4897838;29;20348;-56
2021/10/18 04:46:40;;;;;;;;;;;;;;;7.89;91.85;102151.50;4897938;29;19962;-55
2021/10/18 04:49:06;;;;;;;;;;;;;;;7.82;91.41;102159.63;4896580;29;19931;-56
2021/10/18 04:51:33;;;;;;;;;;;;;;;7.83;91.94;102154.34;4896478;29;19934;-57
2021/10/18 04:54:00;;;;;;;;;;;;;;;7.84;92.47;102158.69;4897678;29;19927;-56
2021/10/18 04:56:26;;;;;;;;;;;;;;;7.73;91.97;102168.63;4881443;29;19979;-51
2021/10/18 04:58:53;;;;;;;;;;;;;;;7.78;91.55;102162.34;4881596;29;19979;-47
2021/10/18 05:01:20;;;;;;;;;;;;;;;7.64;91.76;102168.94;4897638;29;19979;-56
2021/10/18 05:03:47;;;;;;;;;;;;;;;7.61;92.11;102180.38;4897657;29;19960;-56
2021/10/18 05:06:14;;;;;;;;;;;;;;;7.59;92.75;102176.91;4894763;29;19975;-57
2021/10/18 05:08:40;;;;;;;;;;;;;;;7.54;91.81;102177.06;4895802;29;19927;-55
2021/10/18 05:11:07;;;;;;;;;;;;;;;7.52;91.82;102186.72;4896266;29;19928;-57
2021/10/18 05:13:34;;;;;;;;;;;;;;;7.50;92.89;102178.06;4897384;29;19967;-57
2021/10/18 05:16:01;;;;;;;;;;;;;;;7.37;93.85;102176.72;4881280;29;19991;-57
2021/10/18 05:18:28;;;;;;;;;;;;;;;7.35;93.64;102171.56;4897690;29;20451;-57
2021/10/18 05:20:54;;;;;;;;;;;;;;;7.37;93.74;102174.97;4897307;29;19934;-56
2021/10/18 05:23:21;;;;;;;;;;;;;;;7.27;93.49;102179.63;4894631;29;19928;-57
2021/10/18 05:25:48;;;;;;;;;;;;;;;7.30;93.43;102173.44;4895818;29;19931;-56
2021/10/18 05:28:14;;;;;;;;;;;;;;;7.24;92.98;102182.34;4897517;29;19934;-57
2021/10/18 05:30:41;;;;;;;;;;;;;;;7.23;93.53;102182.38;4897505;29;19973;-54
2021/10/18 05:33:08;;;;;;;;;;;;;;;7.16;94.16;102180.84;4880448;29;19928;-51
2021/10/18 05:35:36;;;;;;;;;;;;;;;7.22;93.63;102185.91;4897361;29;19975;-50
2021/10/18 05:38:03;;;;;;;;;;;;;;;7.20;93.79;102196.41;4897335;29;20380;-50
2021/10/18 05:40:30;;;;;;;;;;;;;;;7.16;94.39;102193.91;4897523;29;19932;-50
2021/10/18 05:42:57;;;;;;;;;;;;;;;7.17;95.39;102191.28;4896320;29;20031;-52
2021/10/18 05:45:23;;;;;;;;;;;;;;;7.23;95.04;102201.56;4880480;29;19934;-53
2021/10/18 05:47:58;;;;;;;;;;;;;;;7.17;95.36;102196.50;4899574;29;19931;-47
2021/10/18 05:50:25;;;;;;;;;;;;;;;7.14;95.45;102198.34;4897717;29;19928;-46
2021/10/18 05:52:52;;;;;;;;;;;;;;;7.16;95.58;102197.41;4898778;29;19927;-45
2021/10/18 05:55:18;;;;;;;;;;;;;;;7.18;96.41;102202.59;4900689;29;19975;-44
2021/10/18 05:57:46;;;;;;;;;;;;;;;7.16;97.56;102199.16;4884025;29;19934;-45
2021/10/18 06:00:13;;;;;;;;;;;;;;;7.14;97.89;102200.97;4900910;29;19992;-49
2021/10/18 06:02:39;;;;;;;;;;;;;;;7.11;98.57;102212.38;4900722;29;19927;-46
2021/10/18 06:05:06;;;;;;;;;;;;;;;7.15;99.38;102202.69;4899681;29;20030;-51
2021/10/18 06:07:33;;;;;;;;;;;;;;;7.11;99.21;102207.16;4898982;29;19932;-49
2021/10/18 06:10:00;;;;;;;;;;;;;;;7.11;99.83;102208.00;4884127;29;19976;-48
2021/10/18 06:12:26;;;;;;;;;;;;;;;7.13;99.41;102207.97;4883339;29;19947;-56
2021/10/18 06:14:53;;;;;;;;;;;;;;;7.16;99.68;102210.50;4895618;29;20386;-57
2021/10/18 06:17:20;;;;;;;;;;;;;;;7.18;99.49;102215.69;4898481;29;19935;-56
2021/10/18 06:19:46;;;;;;;;;;;;;;;7.18;99.87;102208.69;4900680;29;19927;-55
2021/10/18 06:22:13;;;;;;;;;;;;;;;7.19;99.75;102215.63;4883667;29;20359;-54
2021/10/18 06:24:40;;;;;;;;;;;;;;;7.22;100.00;102209.44;4897907;29;19928;-54
2021/10/18 06:27:07;;;;;;;;;;;;;;;7.27;100.00;102213.66;4897614;29;20552;-58
2021/10/18 06:29:35;;;;;;;;;;;;;;;7.32;100.00;102202.19;4899951;29;19958;-56
2021/10/18 06:32:02;;;;;;;;;;;;;;;7.39;100.00;102201.09;4900199;29;20451;-57
2021/10/18 06:34:29;;;;;;;;;;;;;;;7.40;100.00;102201.06;4900186;29;19955;-56
2021/10/18 06:36:55;;;;;;;;;;;;;;;7.40;100.00;102208.03;4900080;29;19934;-55
2021/10/18 06:39:22;;;;;;;;;;;;;;;7.43;100.00;102213.19;4883471;29;19991;-54
2021/10/18 06:41:49;;;;;;;;;;;;;;;7.46;100.00;102218.34;4897070;29;20060;-55
2021/10/18 06:44:15;;;;;;;;;;;;;;;7.45;100.00;102219.25;4896819;29;19928;-56
2021/10/18 06:46:42;;;;;;;;;;;;;;;7.53;100.00;102211.16;4899924;29;19934;-54
2021/10/18 06:49:08;;;;;;;;;;;;;;;7.55;100.00;102207.59;4899874;29;19955;-57
2021/10/18 06:51:44;;;;;;;;;;;;;;;7.64;100.00;102198.59;4882736;29;20293;-56
2021/10/18 06:54:12;;;;;;;;;;;;;;;7.64;100.00;102205.59;4880540;29;19995;-55
2021/10/18 06:56:44;;;;;;;;;;;;;;;7.65;100.00;102202.94;4880101;29;20470;-57
2021/10/18 06:59:14;;;;;;;;;;;;;;;7.68;100.00;102204.59;4881308;29;19932;-56
2021/10/18 07:01:41;;;;;;;;;;;;;;;7.73;100.00;102215.75;4895012;29;19927;-57
2021/10/18 07:04:08;;;;;;;;;;;;;;;7.76;100.00;102219.16;4898176;29;19935;-57
2021/10/18 07:06:35;;;;;;;;;;;;;;;7.80;100.00;102225.16;4898400;29;19927;-57
2021/10/18 07:09:02;;;;;;;;;;;;;;;7.79;100.00;102231.31;4898311;29;19927;-57
2021/10/18 07:11:29;;;;;;;;;;;;;;;7.84;100.00;102223.28;4897045;29;19943;-56
2021/10/18 07:13:55;;;;;;;;;;;;;;;7.90;100.00;102218.72;4896244;29;19935;-57
2021/10/18 07:16:23;;;;;;;;;;;;;;;7.94;100.00;102219.47;4896489;29;20299;-57
2021/10/18 07:18:49;;;;;;;;;;;;;;;8.00;100.00;102226.28;4899303;29;20379;-57
2021/10/18 07:21:16;;;;;;;;;;;;;;;8.11;100.00;102222.41;4899263;29;20280;-56
2021/10/18 07:23:45;;;;;;;;;;;;;;;8.17;99.54;102226.59;4899201;29;19927;-57
2021/10/18 07:26:12;;;;;;;;;;;;;;;8.29;99.10;102220.94;4898354;29;19932;-56
2021/10/18 07:28:38;;;;;;;;;;;;;;;8.34;98.28;102226.00;4895252;29;19931;-55
2021/10/18 07:31:05;;;;;;;;;;;;;;;8.40;98.35;102219.72;4896945;29;20455;-57
2021/10/18 07:33:32;;;;;;;;;;;;;;;8.36;97.86;102215.50;4898964;29;19928;-46
2021/10/18 07:36:07;;;;;;;;;;;;;;;8.54;96.97;102216.66;4899174;29;19980;-58
2021/10/18 07:38:35;;;;;;;;;;;;;;;8.60;97.16;102219.06;4882908;29;19951;-47
2021/10/18 07:41:02;;;;;;;;;;;;;;;8.76;96.06;102212.34;4881389;29;19986;-48
2021/10/18 07:43:29;;;;;;;;;;;;;;;8.79;95.49;102212.28;4895208;29;20335;-58
2021/10/18 07:45:55;;;;;;;;;;;;;;;8.83;95.78;102213.00;4897798;29;19928;-57
2021/10/18 07:48:22;;;;;;;;;;;;;;;9.01;95.61;102214.09;4898676;29;19927;-48
2021/10/18 07:50:50;;;;;;;;;;;;;;;9.21;95.08;102225.63;4898225;29;20018;-53
2021/10/18 07:53:16;;;;;;;;;;;;;;;9.18;94.44;102231.84;4896780;29;19928;-49
2021/10/18 07:55:43;;;;;;;;;;;;;;;9.25;94.30;102227.22;4894174;29;19937;-51
2021/10/18 07:58:19;;;;;;;;;;;;;;;9.33;93.17;102235.66;4896109;29;19927;-48
2021/10/18 08:00:47;;;;;;;;;;;;;;;9.57;93.03;102219.88;4881621;29;19943;-49
2021/10/18 08:03:13;;;;;;;;;;;;;;;9.62;91.57;102221.41;4881396;29;19927;-48
2021/10/18 08:05:40;;;;;;;;;;;;;;;9.74;91.95;102227.13;4881345;29;20374;-50
2021/10/18 08:08:10;;;;;;;;;;;;;;;9.91;90.30;102224.66;4898276;29;19932;-46
2021/10/18 08:10:37;;;;;;;;;;;;;;;10.03;89.11;102231.19;4897216;29;19928;-48
2021/10/18 08:13:03;;;;;;;;;;;;;;;10.03;88.26;102227.72;4882099;29;19928;-49
2021/10/18 08:15:35;;;;;;;;;;;;;;;10.21;89.49;102223.47;4898072;29;19931;-50
2021/10/18 08:18:02;;;;;;;;;;;;;;;10.36;87.59;102230.75;4898216;29;19931;-48
2021/10/18 08:20:29;;;;;;;;;;;;;;;10.67;86.80;102236.47;4898026;29;19934;-45
2021/10/18 08:22:55;;;;;;;;;;;;;;;10.81;86.77;102234.94;4896535;29;20443;-49
2021/10/18 08:25:22;;;;;;;;;;;;;;;11.01;85.55;102242.88;4877973;29;20362;-46
2021/10/18 08:27:49;;;;;;;;;;;;;;;11.07;84.81;102243.47;4896769;29;19928;-48
2021/10/18 08:30:16;;;;;;;;;;;;;;;11.10;83.38;102248.59;4881241;29;19971;-52
2021/10/18 08:32:43;;;;;;;;;;;;;;;11.03;83.60;102243.66;4896822;29;19999;-51
2021/10/18 08:35:11;;;;;;;;;;;;;;;10.97;83.98;102243.00;4897778;29;19928;-49
2021/10/18 08:40:27;;;;;;;;;;;;;;;10.99;83.78;102240.31;4897653;29;20403;-57
2021/10/18 08:43:04;;;;;;;;;;;;;;;11.10;83.40;102240.69;4896634;29;19931;-57
2021/10/18 08:45:31;;;;;;;;;;;;;;;11.30;84.09;102241.53;4898027;29;20391;-54
2021/10/18 08:47:58;;;;;;;;;;;;;;;11.43;80.48;102236.59;4897679;29;20013;-57
2021/10/18 08:50:25;;;;;;;;;;;;;;;11.45;80.37;102234.72;4881039;29;20022;-57
2021/10/18 08:52:51;;;;;;;;;;;;;;;11.67;80.07;102234.59;4895190;29;19931;-57
2021/10/18 08:55:18;;;;;;;;;;;;;;;11.78;80.72;102229.63;4894711;29;19932;-56
2021/10/18 08:57:45;;;;;;;;;;;;;;;11.96;79.98;102225.28;4881142;29;19976;-55
2021/10/18 09:00:30;;;;;;;;;;;;;;;12.12;79.69;102224.50;4881148;29;20306;-57
2021/10/18 09:02:57;;;;;;;;;;;;;;;12.14;79.48;102220.88;4897626;29;19935;-56
2021/10/18 09:05:24;;;;;;;;;;;;;;;12.06;78.54;102219.56;4897493;29;19928;-56
2021/10/18 09:07:51;;;;;;;;;;;;;;;12.27;78.01;102212.34;4897380;29;19934;-57
2021/10/18 09:10:17;;;;;;;;;;;;;;;12.29;77.43;102215.75;4865425;29;19938;-57
2021/10/18 09:12:46;;;;;;;;;;;;;;;12.36;77.24;102224.22;4897504;29;19928;-58
2021/10/18 09:15:23;;;;;;;;;;;;;;;12.37;75.72;102233.84;4897351;29;19951;-46
2021/10/18 09:17:53;;;;;;;;;;;;;;;12.47;75.44;102235.06;4897543;29;19935;-50
2021/10/18 09:20:24;;;;;;;;;;;;;;;12.71;76.67;102232.97;4896009;29;20316;-50
2021/10/18 09:22:51;;;;;;;;;;;;;;;12.82;74.91;102230.59;4899488;29;19935;-51
2021/10/18 09:25:44;;;;;;;;;;;;;;;13.13;75.99;102218.41;4900512;29;19984;-51
2021/10/18 09:28:12;;;;;;;;;;;;;;;13.20;74.22;102218.94;4899304;29;19959;-52
2021/10/18 09:30:40;;;;;;;;;;;;;;;13.34;74.28;102216.38;4899931;29;19934;-49
2021/10/18 09:33:27;;;;;;;;;;;;;;;13.47;73.36;102219.25;4897692;29;19967;-51
2021/10/18 09:35:54;;;;;;;;;;;;;;;13.50;72.93;102211.13;4899538;29;20407;-48
2021/10/18 09:38:22;;;;;;;;;;;;;;;13.68;72.55;102201.31;4898951;29;19963;-52
2021/10/18 09:40:49;;;;;;;;;;;;;;;13.82;71.07;102202.31;4897394;29;19939;-53
2021/10/18 09:43:19;;;;;;;;;;;;;;;13.93;70.78;102197.25;4898803;29;20387;-51
2021/10/18 09:45:55;;;;;;;;;;;;;;;14.10;70.25;102213.97;4900992;29;19928;-49
2021/10/18 10:52:42;;;;;;;;;;;;;;;15.26;64.34;102128.31;4880115;29;20039;-55
2021/10/18 10:55:23;;;;;;;;;;;;;;;15.40;63.77;102124.75;4880699;29;19934;-57
2021/10/18 10:57:52;;;;;;;;;;;;;;;15.77;62.80;102124.13;4880955;29;19932;-55
2021/10/18 11:00:38;;;;;;;;;;;;;;;15.68;62.55;102125.63;4880956;29;19928;-55
2021/10/18 11:03:20;;;;;;;;;;;;;;;16.28;62.48;102134.84;4881084;29;19936;-57
2021/10/18 11:06:02;;;;;;;;;;;;;;;16.51;60.30;102132.38;4880976;29;20023;-57
2021/10/18 11:08:30;;;;;;;;;;;;;;;17.00;59.28;102136.91;4878898;29;19935;-58
2021/10/18 11:11:09;;;;;;;;;;;;;;;17.26;58.12;102133.31;4880802;29;19927;-56
2021/10/18 11:13:51;;;;;;;;;;;;;;;17.31;58.46;102129.34;4880688;29;20022;-57
2021/10/18 11:16:19;;;;;;;;;;;;;;;17.50;57.03;102128.00;4879544;29;19979;-56
2021/10/18 11:18:46;;;;;;;;;;;;;;;17.15;56.14;102129.63;4864078;29;19927;-57
2021/10/18 11:21:14;;;;;;;;;;;;;;;17.18;57.08;102129.41;4876999;29;20556;-57
2021/10/18 11:23:53;;;;;;;;;;;;;;;17.06;57.17;102127.63;4877389;29;19950;-58
2021/10/18 11:26:19;;;;;;;;;;;;;;;17.00;57.21;102120.97;4880466;29;19928;-56
2021/10/18 11:28:46;;;;;;;;;;;;;;;17.04;57.52;102119.78;4864342;29;19932;-57
2021/10/18 11:31:13;;;;;;;;;;;;;;;16.90;57.83;102125.22;4880393;29;19927;-56
2021/10/18 11:33:40;;;;;;;;;;;;;;;16.95;58.17;102115.13;4878869;29;19927;-55
2021/10/18 11:36:16;;;;;;;;;;;;;;;16.81;58.39;102110.78;4880289;29;19931;-56
2021/10/18 11:38:44;;;;;;;;;;;;;;;16.96;59.01;102098.22;4894105;29;19928;-57
2021/10/18 11:41:11;;;;;;;;;;;;;;;17.04;58.15;102087.03;4898937;29;19928;-57
2021/10/18 11:43:40;;;;;;;;;;;;;;;17.05;58.70;102076.28;4899581;29;19991;-56
2021/10/18 11:46:07;;;;;;;;;;;;;;;17.09;58.36;102074.25;4888540;29;20360;-57
2021/10/18 11:48:37;;;;;;;;;;;;;;;17.34;58.12;102073.31;4867785;29;20299;-57
2021/10/18 11:51:03;;;;;;;;;;;;;;;17.16;58.43;102069.34;4880477;29;20288;-55
2021/10/18 11:53:31;;;;;;;;;;;;;;;17.09;57.74;102057.47;4879853;29;20411;-56
2021/10/18 11:55:59;;;;;;;;;;;;;;;17.03;58.41;102056.97;4879785;29;20009;-57
2021/10/18 11:58:27;;;;;;;;;;;;;;;16.81;59.12;102046.16;4882748;29;19928;-58
2021/10/18 12:00:56;;;;;;;;;;;;;;;17.08;58.68;102045.13;4878040;29;19928;-56
2021/10/18 12:03:23;;;;;;;;;;;;;;;16.84;58.81;102030.84;4876785;29;19935;-57
2021/10/18 12:05:51;;;;;;;;;;;;;;;16.80;58.96;102029.38;4878569;29;19927;-57
2021/10/18 12:08:18;;;;;;;;;;;;;;;16.54;59.32;102024.16;4876896;29;19928;-56
2021/10/18 12:10:47;;;;;;;;;;;;;;;16.48;59.54;102027.22;4876262;29;19931;-51
2021/10/18 12:13:18;;;;;;;;;;;;;;;16.62;59.70;102018.31;4885243;29;20022;-58
2021/10/18 12:15:46;;;;;;;;;;;;;;;16.93;60.02;102012.56;4898224;29;20046;-57
2021/10/18 12:18:14;;;;;;;;;;;;;;;17.17;60.68;102004.59;4881575;29;19931;-55
2021/10/18 12:20:45;;;;;;;;;;;;;;;17.08;59.35;102007.94;4896103;29;19927;-57
2021/10/18 12:23:19;;;;;;;;;;;;;;;16.88;60.60;102011.06;4897938;29;20260;-57
2021/10/18 12:25:53;;;;;;;;;;;;;;;16.83;59.33;102002.59;4878030;29;19934;-56
2021/10/18 12:28:40;;;;;;;;;;;;;;;16.80;59.91;102012.63;4878696;29;19928;-58
2021/10/18 12:31:22;;;;;;;;;;;;;;;16.75;59.29;102022.72;4879096;29;20498;-57
2021/10/18 12:33:58;;;;;;;;;;;;;;;16.80;60.76;102012.63;4867121;29;19936;-56
2021/10/18 12:36:24;;;;;;;;;;;;;;;16.70;60.85;102007.97;4871263;29;19939;-57
2021/10/18 12:38:51;;;;;;;;;;;;;;;16.87;60.29;102005.88;4859707;29;19978;-57
2021/10/18 12:41:18;;;;;;;;;;;;;;;16.93;61.03;102005.44;4860595;29;20289;-57
2021/10/18 12:43:45;;;;;;;;;;;;;;;16.79;60.78;102010.91;4861071;29;20411;-57
2021/10/18 12:46:15;;;;;;;;;;;;;;;16.98;59.24;102011.28;4857244;29;19944;-48
2021/10/18 12:48:41;;;;;;;;;;;;;;;16.41;60.38;102010.06;4857509;29;20014;-49
2021/10/18 12:51:08;;;;;;;;;;;;;;;16.52;60.50;101998.66;4874145;29;19939;-52
2021/10/18 12:53:35;;;;;;;;;;;;;;;16.36;61.71;101983.84;4859615;29;20023;-53
2021/10/18 12:56:06;;;;;;;;;;;;;;;16.56;62.01;101982.41;4844713;29;19967;-48
2021/10/18 12:58:36;;;;;;;;;;;;;;;16.74;61.57;101979.34;4872819;29;19927;-48
2021/10/18 13:01:13;;;;;;;;;;;;;;;16.74;61.07;101976.69;4873572;29;19928;-49
2021/10/18 13:03:40;;;;;;;;;;;;;;;16.35;61.85;101962.72;4874733;29;19928;-51
2021/10/18 13:06:07;;;;;;;;;;;;;;;16.55;61.95;101966.56;4858909;29;19928;-48
2021/10/18 13:08:34;;;;;;;;;;;;;;;16.46;61.71;101967.25;4870698;29;19945;-49
2021/10/18 13:11:00;;;;;;;;;;;;;;;16.55;62.34;101969.22;4859172;29;19929;-48
2021/10/18 13:13:27;;;;;;;;;;;;;;;16.50;61.69;101969.56;4866383;29;20711;-49
2021/10/18 13:15:54;;;;;;;;;;;;;;;16.63;61.98;101984.63;4874471;29;19927;-47
2021/10/18 13:18:21;;;;;;;;;;;;;;;16.54;62.66;101989.63;4868090;29;20364;-50
2021/10/18 13:20:48;;;;;;;;;;;;;;;16.62;61.86;101986.44;4874501;29;19984;-51
2021/10/18 13:23:16;;;;;;;;;;;;;;;16.56;62.60;101981.56;4860297;29;19928;-46
2021/10/18 13:25:43;;;;;;;;;;;;;;;16.51;62.06;101978.38;4874826;29;19928;-49
2021/10/18 13:28:10;;;;;;;;;;;;;;;16.52;62.77;101988.03;4862385;29;19935;-49
2021/10/18 13:30:37;;;;;;;;;;;;;;;16.33;64.17;101992.03;4891740;29;19960;-50
2021/10/18 13:33:04;;;;;;;;;;;;;;;16.48;63.63;101992.72;4878503;29;19979;-48
2021/10/18 13:35:31;;;;;;;;;;;;;;;16.55;63.23;101987.81;4878825;29;19932;-51
2021/10/18 13:37:58;;;;;;;;;;;;;;;16.51;63.38;101989.00;4861024;29;19936;-50
2021/10/18 13:40:26;;;;;;;;;;;;;;;16.54;62.63;101996.75;4893656;29;19927;-52
2021/10/18 13:42:53;;;;;;;;;;;;;;;16.61;62.94;101994.50;4897586;29;20388;-46
2021/10/18 13:45:20;;;;;;;;;;;;;;;16.72;62.62;101990.09;4897479;29;19987;-48
2021/10/18 13:47:47;;;;;;;;;;;;;;;16.62;63.17;101999.72;4878583;29;19928;-45
2021/10/18 13:50:14;;;;;;;;;;;;;;;16.74;63.36;101997.94;4892902;29;20344;-46
2021/10/18 13:52:41;;;;;;;;;;;;;;;16.85;62.30;102003.34;4876102;29;19947;-46